East Pennsboro, Pennsylvania
Current Conditions -  °F | °C
As of 4:56 PM on Saturday 20 Dec 2014 (Local Time) from KCXY Reporting Station
Clear Clear  
Wind Chill: 27°   Ceiling: Unl
Heat Index: 32°   Visibility: 10mi
Dew Point: 20°   Wind: 5mph
Humidity: 61%   Direction: 320°NW
Pressure: 30.28"   Gusts: NA
Location:  40.2947°N, 76.9833°W
Report Text: KCXY 202156Z 32004KT 10SM CLR 00/M07 A3028 RMK AO2 SLP258 T00001067
Loading
Personal Weather Stations






























Interactive Weather Map New forecast layout! Learn more

10-Day Weather Forecast

Advertisements
Track Severe Weather on mobile